sensor_id;sensor_type;location;lat;lon;timestamp;temperature;humidity
6256;DHT22;3161;48.794;9.784;2023-05-16T00:01:40;11.60;99.90
6256;DHT22;3161;48.794;9.784;2023-05-16T00:04:07;11.60;99.90
6256;DHT22;3161;48.794;9.784;2023-05-16T00:06:35;11.60;99.90
6256;DHT22;3161;48.794;9.784;2023-05-16T00:09:02;11.50;99.90
6256;DHT22;3161;48.794;9.784;2023-05-16T00:11:30;11.50;99.90
6256;DHT22;3161;48.794;9.784;2023-05-16T00:13:57;11.40;99.90
6256;DHT22;3161;48.794;9.784;2023-05-16T00:16:27;11.40;99.90
6256;DHT22;3161;48.794;9.784;2023-05-16T00:18:56;11.40;99.90
6256;DHT22;3161;48.794;9.784;2023-05-16T00:21:25;11.40;99.90
6256;DHT22;3161;48.794;9.784;2023-05-16T00:23:52;11.30;99.90
6256;DHT22;3161;48.794;9.784;2023-05-16T00:26:20;11.30;99.90
6256;DHT22;3161;48.794;9.784;2023-05-16T00:28:48;11.30;99.90
6256;DHT22;3161;48.794;9.784;2023-05-16T00:31:15;11.20;99.90
6256;DHT22;3161;48.794;9.784;2023-05-16T00:33:43;11.20;99.90
6256;DHT22;3161;48.794;9.784;2023-05-16T00:36:10;11.20;99.90
6256;DHT22;3161;48.794;9.784;2023-05-16T00:38:38;11.10;99.90
6256;DHT22;3161;48.794;9.784;2023-05-16T00:41:05;11.20;99.90
6256;DHT22;3161;48.794;9.784;2023-05-16T00:43:33;11.10;99.90
6256;DHT22;3161;48.794;9.784;2023-05-16T00:46:00;11.10;99.90
6256;DHT22;3161;48.794;9.784;2023-05-16T00:48:28;11.00;99.90
6256;DHT22;3161;48.794;9.784;2023-05-16T00:50:56;11.10;99.90
6256;DHT22;3161;48.794;9.784;2023-05-16T00:53:24;11.00;99.90
6256;DHT22;3161;48.794;9.784;2023-05-16T00:55:52;11.00;99.90
6256;DHT22;3161;48.794;9.784;2023-05-16T00:58:20;10.90;99.90
6256;DHT22;3161;48.794;9.784;2023-05-16T01:00:49;10.90;99.90
6256;DHT22;3161;48.794;9.784;2023-05-16T01:03:16;10.90;99.90
6256;DHT22;3161;48.794;9.784;2023-05-16T01:05:45;10.90;99.90
6256;DHT22;3161;48.794;9.784;2023-05-16T01:08:13;10.80;99.90
6256;DHT22;3161;48.794;9.784;2023-05-16T01:10:49;10.80;99.90
6256;DHT22;3161;48.794;9.784;2023-05-16T01:13:23;10.80;99.90
6256;DHT22;3161;48.794;9.784;2023-05-16T01:16:12;10.80;99.90
6256;DHT22;3161;48.794;9.784;2023-05-16T01:21:28;10.80;99.90
6256;DHT22;3161;48.794;9.784;2023-05-16T01:24:17;10.70;99.90
6256;DHT22;3161;48.794;9.784;2023-05-16T01:26:43;10.70;99.90
6256;DHT22;3161;48.794;9.784;2023-05-16T01:29:12;10.70;99.90
6256;DHT22;3161;48.794;9.784;2023-05-16T01:31:40;10.70;99.90
6256;DHT22;3161;48.794;9.784;2023-05-16T01:34:07;10.70;99.90
6256;DHT22;3161;48.794;9.784;2023-05-16T01:39:40;10.70;99.90
6256;DHT22;3161;48.794;9.784;2023-05-16T01:42:08;10.70;99.90
6256;DHT22;3161;48.794;9.784;2023-05-16T01:47:25;10.70;99.90
6256;DHT22;3161;48.794;9.784;2023-05-16T01:50:14;10.70;99.90
6256;DHT22;3161;48.794;9.784;2023-05-16T01:55:35;10.70;99.90
6256;DHT22;3161;48.794;9.784;2023-05-16T01:58:01;10.60;99.90
6256;DHT22;3161;48.794;9.784;2023-05-16T02:00:30;10.70;99.90
6256;DHT22;3161;48.794;9.784;2023-05-16T02:02:57;10.60;99.90
6256;DHT22;3161;48.794;9.784;2023-05-16T02:05:25;10.60;99.90
6256;DHT22;3161;48.794;9.784;2023-05-16T02:07:52;10.60;99.90
6256;DHT22;3161;48.794;9.784;2023-05-16T02:10:20;10.60;99.90
6256;DHT22;3161;48.794;9.784;2023-05-16T02:12:49;10.60;99.90
6256;DHT22;3161;48.794;9.784;2023-05-16T02:15:17;10.60;99.90
6256;DHT22;3161;48.794;9.784;2023-05-16T02:17:45;10.60;99.90
6256;DHT22;3161;48.794;9.784;2023-05-16T02:20:20;10.60;99.90
6256;DHT22;3161;48.794;9.784;2023-05-16T02:22:48;10.60;99.90
6256;DHT22;3161;48.794;9.784;2023-05-16T02:25:15;10.60;99.90
6256;DHT22;3161;48.794;9.784;2023-05-16T02:27:43;10.60;99.90
6256;DHT22;3161;48.794;9.784;2023-05-16T02:30:11;10.60;99.90
6256;DHT22;3161;48.794;9.784;2023-05-16T02:32:39;10.60;99.90
6256;DHT22;3161;48.794;9.784;2023-05-16T02:35:07;10.70;99.90
6256;DHT22;3161;48.794;9.784;2023-05-16T02:37:34;10.70;99.90
6256;DHT22;3161;48.794;9.784;2023-05-16T02:40:03;10.70;99.90
6256;DHT22;3161;48.794;9.784;2023-05-16T02:42:32;10.70;99.90
6256;DHT22;3161;48.794;9.784;2023-05-16T02:45:00;10.70;99.90
6256;DHT22;3161;48.794;9.784;2023-05-16T02:47:27;10.70;99.90
6256;DHT22;3161;48.794;9.784;2023-05-16T02:49:55;10.70;99.90
6256;DHT22;3161;48.794;9.784;2023-05-16T02:52:22;10.70;99.90
6256;DHT22;3161;48.794;9.784;2023-05-16T02:54:50;11.80;99.90
6256;DHT22;3161;48.794;9.784;2023-05-16T02:57:18;10.60;99.90
6256;DHT22;3161;48.794;9.784;2023-05-16T02:59:45;10.60;99.90
6256;DHT22;3161;48.794;9.784;2023-05-16T03:02:13;10.60;99.90
6256;DHT22;3161;48.794;9.784;2023-05-16T03:04:40;10.60;99.90
6256;DHT22;3161;48.794;9.784;2023-05-16T03:07:08;10.60;99.90
6256;DHT22;3161;48.794;9.784;2023-05-16T03:09:35;10.60;99.90
6256;DHT22;3161;48.794;9.784;2023-05-16T03:12:03;10.60;99.90
6256;DHT22;3161;48.794;9.784;2023-05-16T03:14:31;10.60;99.90
6256;DHT22;3161;48.794;9.784;2023-05-16T03:16:58;10.50;99.90
6256;DHT22;3161;48.794;9.784;2023-05-16T03:19:26;10.50;99.90
6256;DHT22;3161;48.794;9.784;2023-05-16T03:21:54;10.50;99.90
6256;DHT22;3161;48.794;9.784;2023-05-16T03:24:21;10.50;99.90
6256;DHT22;3161;48.794;9.784;2023-05-16T03:26:49;10.40;99.90
6256;DHT22;3161;48.794;9.784;2023-05-16T03:29:17;10.40;99.90
6256;DHT22;3161;48.794;9.784;2023-05-16T03:31:45;10.40;99.90
6256;DHT22;3161;48.794;9.784;2023-05-16T03:34:12;10.30;99.90
6256;DHT22;3161;48.794;9.784;2023-05-16T03:36:41;10.30;99.90
6256;DHT22;3161;48.794;9.784;2023-05-16T03:39:08;10.30;99.90
6256;DHT22;3161;48.794;9.784;2023-05-16T03:41:37;10.30;99.90
6256;DHT22;3161;48.794;9.784;2023-05-16T03:44:04;10.30;99.90
6256;DHT22;3161;48.794;9.784;2023-05-16T03:46:32;10.20;99.90
6256;DHT22;3161;48.794;9.784;2023-05-16T03:49:00;10.20;99.90
6256;DHT22;3161;48.794;9.784;2023-05-16T03:51:27;10.20;99.90
6256;DHT22;3161;48.794;9.784;2023-05-16T03:53:56;10.20;99.90
6256;DHT22;3161;48.794;9.784;2023-05-16T03:56:23;10.20;99.90
6256;DHT22;3161;48.794;9.784;2023-05-16T03:58:51;10.20;99.90
6256;DHT22;3161;48.794;9.784;2023-05-16T04:01:19;10.20;99.90
6256;DHT22;3161;48.794;9.784;2023-05-16T04:03:47;10.20;99.90
6256;DHT22;3161;48.794;9.784;2023-05-16T04:06:16;10.20;99.90
6256;DHT22;3161;48.794;9.784;2023-05-16T04:08:43;10.30;99.90
6256;DHT22;3161;48.794;9.784;2023-05-16T04:11:11;10.30;99.90
6256;DHT22;3161;48.794;9.784;2023-05-16T04:13:39;10.30;99.90
6256;DHT22;3161;48.794;9.784;2023-05-16T04:16:07;10.30;99.90
6256;DHT22;3161;48.794;9.784;2023-05-16T04:18:34;10.30;99.90
6256;DHT22;3161;48.794;9.784;2023-05-16T04:21:02;10.30;99.90
6256;DHT22;3161;48.794;9.784;2023-05-16T04:23:30;10.40;99.90
6256;DHT22;3161;48.794;9.784;2023-05-16T04:25:57;10.30;99.90
6256;DHT22;3161;48.794;9.784;2023-05-16T04:28:26;10.30;99.90
6256;DHT22;3161;48.794;9.784;2023-05-16T04:30:54;10.40;99.90
6256;DHT22;3161;48.794;9.784;2023-05-16T04:33:22;10.50;99.90
6256;DHT22;3161;48.794;9.784;2023-05-16T04:35:49;10.50;99.90
6256;DHT22;3161;48.794;9.784;2023-05-16T04:38:18;10.50;99.90
6256;DHT22;3161;48.794;9.784;2023-05-16T04:40:46;10.50;99.90
6256;DHT22;3161;48.794;9.784;2023-05-16T04:43:15;10.60;99.90
6256;DHT22;3161;48.794;9.784;2023-05-16T04:45:42;10.60;99.90
6256;DHT22;3161;48.794;9.784;2023-05-16T04:48:10;10.60;99.90
6256;DHT22;3161;48.794;9.784;2023-05-16T04:50:37;10.60;99.90
6256;DHT22;3161;48.794;9.784;2023-05-16T04:53:05;10.70;99.90
6256;DHT22;3161;48.794;9.784;2023-05-16T04:55:33;10.70;99.90
6256;DHT22;3161;48.794;9.784;2023-05-16T04:58:00;10.80;99.90
6256;DHT22;3161;48.794;9.784;2023-05-16T05:00:28;10.80;99.90
6256;DHT22;3161;48.794;9.784;2023-05-16T05:02:55;10.80;99.90
6256;DHT22;3161;48.794;9.784;2023-05-16T05:05:23;10.80;99.90
6256;DHT22;3161;48.794;9.784;2023-05-16T05:07:51;10.90;99.90
6256;DHT22;3161;48.794;9.784;2023-05-16T05:10:19;10.90;99.90
6256;DHT22;3161;48.794;9.784;2023-05-16T05:12:47;11.00;99.90
6256;DHT22;3161;48.794;9.784;2023-05-16T05:15:14;11.00;99.90
6256;DHT22;3161;48.794;9.784;2023-05-16T05:17:42;11.10;99.90
6256;DHT22;3161;48.794;9.784;2023-05-16T05:20:11;11.10;99.90
6256;DHT22;3161;48.794;9.784;2023-05-16T05:22:38;11.20;99.90
6256;DHT22;3161;48.794;9.784;2023-05-16T05:25:07;11.20;99.90
6256;DHT22;3161;48.794;9.784;2023-05-16T05:27:34;11.20;99.90
6256;DHT22;3161;48.794;9.784;2023-05-16T05:30:03;11.30;99.90
6256;DHT22;3161;48.794;9.784;2023-05-16T05:32:30;11.30;99.90
6256;DHT22;3161;48.794;9.784;2023-05-16T05:34:58;11.40;99.90
6256;DHT22;3161;48.794;9.784;2023-05-16T05:37:26;11.40;99.90
6256;DHT22;3161;48.794;9.784;2023-05-16T05:39:53;11.40;99.90
6256;DHT22;3161;48.794;9.784;2023-05-16T05:42:21;11.40;99.90
6256;DHT22;3161;48.794;9.784;2023-05-16T05:44:49;11.30;99.90
6256;DHT22;3161;48.794;9.784;2023-05-16T05:47:17;11.40;99.90
6256;DHT22;3161;48.794;9.784;2023-05-16T05:49:44;11.50;99.90
6256;DHT22;3161;48.794;9.784;2023-05-16T05:52:12;11.60;99.90
6256;DHT22;3161;48.794;9.784;2023-05-16T05:54:40;11.60;99.90
6256;DHT22;3161;48.794;9.784;2023-05-16T05:57:07;11.70;99.90
6256;DHT22;3161;48.794;9.784;2023-05-16T05:59:35;11.80;99.90
6256;DHT22;3161;48.794;9.784;2023-05-16T06:02:02;11.80;99.90
6256;DHT22;3161;48.794;9.784;2023-05-16T06:04:30;11.90;99.90
6256;DHT22;3161;48.794;9.784;2023-05-16T06:06:57;12.00;99.90
6256;DHT22;3161;48.794;9.784;2023-05-16T06:09:25;12.10;99.90
6256;DHT22;3161;48.794;9.784;2023-05-16T06:11:52;12.20;99.90
6256;DHT22;3161;48.794;9.784;2023-05-16T06:14:20;12.30;99.90
6256;DHT22;3161;48.794;9.784;2023-05-16T06:19:37;12.40;99.90
6256;DHT22;3161;48.794;9.784;2023-05-16T06:22:05;12.50;99.90
6256;DHT22;3161;48.794;9.784;2023-05-16T06:24:32;12.50;99.90
6256;DHT22;3161;48.794;9.784;2023-05-16T06:27:00;12.60;99.90
6256;DHT22;3161;48.794;9.784;2023-05-16T06:29:27;12.70;99.90
6256;DHT22;3161;48.794;9.784;2023-05-16T06:31:55;12.70;99.90
6256;DHT22;3161;48.794;9.784;2023-05-16T06:34:22;12.80;99.90
6256;DHT22;3161;48.794;9.784;2023-05-16T06:36:52;12.90;99.90
6256;DHT22;3161;48.794;9.784;2023-05-16T06:39:20;12.80;99.90
6256;DHT22;3161;48.794;9.784;2023-05-16T06:41:47;12.90;99.90
6256;DHT22;3161;48.794;9.784;2023-05-16T06:44:14;13.00;99.90
6256;DHT22;3161;48.794;9.784;2023-05-16T06:46:42;13.10;99.90
6256;DHT22;3161;48.794;9.784;2023-05-16T06:49:10;13.10;99.90
6256;DHT22;3161;48.794;9.784;2023-05-16T06:51:37;13.10;99.90
6256;DHT22;3161;48.794;9.784;2023-05-16T06:54:05;13.10;99.90
6256;DHT22;3161;48.794;9.784;2023-05-16T06:56:33;13.10;99.90
6256;DHT22;3161;48.794;9.784;2023-05-16T06:59:01;13.00;99.90
6256;DHT22;3161;48.794;9.784;2023-05-16T07:01:28;13.00;99.90
6256;DHT22;3161;48.794;9.784;2023-05-16T07:03:56;12.90;99.90
6256;DHT22;3161;48.794;9.784;2023-05-16T07:06:23;12.90;99.90
6256;DHT22;3161;48.794;9.784;2023-05-16T07:08:51;13.00;99.90
6256;DHT22;3161;48.794;9.784;2023-05-16T07:11:19;13.10;99.90
6256;DHT22;3161;48.794;9.784;2023-05-16T07:13:46;13.10;99.90
6256;DHT22;3161;48.794;9.784;2023-05-16T07:16:14;13.20;99.90
6256;DHT22;3161;48.794;9.784;2023-05-16T07:18:42;13.20;99.90
6256;DHT22;3161;48.794;9.784;2023-05-16T07:21:09;13.30;99.90
6256;DHT22;3161;48.794;9.784;2023-05-16T07:23:43;13.30;99.90
6256;DHT22;3161;48.794;9.784;2023-05-16T07:26:07;13.40;99.90
6256;DHT22;3161;48.794;9.784;2023-05-16T07:28:34;13.40;99.90
6256;DHT22;3161;48.794;9.784;2023-05-16T07:31:02;13.40;99.90
6256;DHT22;3161;48.794;9.784;2023-05-16T07:33:29;13.50;99.90
6256;DHT22;3161;48.794;9.784;2023-05-16T07:35:57;13.60;99.90
6256;DHT22;3161;48.794;9.784;2023-05-16T07:38:24;13.60;99.90
6256;DHT22;3161;48.794;9.784;2023-05-16T07:40:52;13.70;99.90
6256;DHT22;3161;48.794;9.784;2023-05-16T07:43:20;13.70;99.90
6256;DHT22;3161;48.794;9.784;2023-05-16T07:45:47;14.80;99.90
6256;DHT22;3161;48.794;9.784;2023-05-16T07:48:15;13.80;99.90
6256;DHT22;3161;48.794;9.784;2023-05-16T07:50:43;13.80;99.90
6256;DHT22;3161;48.794;9.784;2023-05-16T07:53:10;13.90;99.90
6256;DHT22;3161;48.794;9.784;2023-05-16T07:55:38;13.90;99.90
6256;DHT22;3161;48.794;9.784;2023-05-16T07:58:06;14.00;99.90
6256;DHT22;3161;48.794;9.784;2023-05-16T08:00:33;14.00;99.90
6256;DHT22;3161;48.794;9.784;2023-05-16T08:03:01;14.10;99.90
6256;DHT22;3161;48.794;9.784;2023-05-16T08:05:28;14.10;99.90
6256;DHT22;3161;48.794;9.784;2023-05-16T08:07:56;14.10;99.90
6256;DHT22;3161;48.794;9.784;2023-05-16T08:10:24;14.10;99.90
6256;DHT22;3161;48.794;9.784;2023-05-16T08:12:51;14.10;99.90
6256;DHT22;3161;48.794;9.784;2023-05-16T08:15:19;14.10;99.90
6256;DHT22;3161;48.794;9.784;2023-05-16T08:17:47;14.10;99.90
6256;DHT22;3161;48.794;9.784;2023-05-16T08:20:15;14.10;99.90
6256;DHT22;3161;48.794;9.784;2023-05-16T08:22:42;14.00;99.90
6256;DHT22;3161;48.794;9.784;2023-05-16T08:25:10;14.00;99.90
6256;DHT22;3161;48.794;9.784;2023-05-16T08:27:37;14.00;99.90
6256;DHT22;3161;48.794;9.784;2023-05-16T08:30:06;14.00;99.90
6256;DHT22;3161;48.794;9.784;2023-05-16T08:32:33;14.00;99.90
6256;DHT22;3161;48.794;9.784;2023-05-16T08:35:03;14.00;99.90
6256;DHT22;3161;48.794;9.784;2023-05-16T08:37:30;14.00;99.90
6256;DHT22;3161;48.794;9.784;2023-05-16T08:39:59;14.00;99.90
6256;DHT22;3161;48.794;9.784;2023-05-16T08:42:26;14.00;99.90
6256;DHT22;3161;48.794;9.784;2023-05-16T08:44:54;14.00;99.90
6256;DHT22;3161;48.794;9.784;2023-05-16T08:47:23;14.00;99.90
6256;DHT22;3161;48.794;9.784;2023-05-16T08:49:54;14.10;99.90
6256;DHT22;3161;48.794;9.784;2023-05-16T08:52:25;14.10;99.90
6256;DHT22;3161;48.794;9.784;2023-05-16T08:55:03;14.20;99.90
6256;DHT22;3161;48.794;9.784;2023-05-16T08:57:32;14.20;99.90
6256;DHT22;3161;48.794;9.784;2023-05-16T08:59:59;14.30;99.90
6256;DHT22;3161;48.794;9.784;2023-05-16T09:02:28;14.30;99.90
6256;DHT22;3161;48.794;9.784;2023-05-16T09:04:56;14.30;99.90
6256;DHT22;3161;48.794;9.784;2023-05-16T09:07:24;14.30;99.90
6256;DHT22;3161;48.794;9.784;2023-05-16T09:09:52;14.30;99.90
6256;DHT22;3161;48.794;9.784;2023-05-16T09:12:20;14.30;99.90
6256;DHT22;3161;48.794;9.784;2023-05-16T09:14:48;14.30;99.90
6256;DHT22;3161;48.794;9.784;2023-05-16T09:17:16;14.40;99.90
6256;DHT22;3161;48.794;9.784;2023-05-16T09:19:43;14.40;99.90
6256;DHT22;3161;48.794;9.784;2023-05-16T09:22:12;14.30;99.90
6256;DHT22;3161;48.794;9.784;2023-05-16T09:24:44;14.30;99.90
6256;DHT22;3161;48.794;9.784;2023-05-16T09:27:14;14.30;99.90
6256;DHT22;3161;48.794;9.784;2023-05-16T09:29:42;14.30;99.90
6256;DHT22;3161;48.794;9.784;2023-05-16T09:32:13;14.30;99.90
6256;DHT22;3161;48.794;9.784;2023-05-16T09:34:45;14.30;99.90
6256;DHT22;3161;48.794;9.784;2023-05-16T09:37:18;14.30;99.90
6256;DHT22;3161;48.794;9.784;2023-05-16T09:39:47;14.30;99.90
6256;DHT22;3161;48.794;9.784;2023-05-16T09:42:16;14.30;99.90
6256;DHT22;3161;48.794;9.784;2023-05-16T09:44:50;14.20;99.90
6256;DHT22;3161;48.794;9.784;2023-05-16T09:47:19;14.20;99.90
6256;DHT22;3161;48.794;9.784;2023-05-16T09:49:51;14.20;99.90
6256;DHT22;3161;48.794;9.784;2023-05-16T09:52:19;14.10;99.90
6256;DHT22;3161;48.794;9.784;2023-05-16T09:54:47;14.10;99.90
6256;DHT22;3161;48.794;9.784;2023-05-16T09:57:22;14.10;99.90
6256;DHT22;3161;48.794;9.784;2023-05-16T09:59:51;14.00;99.90
6256;DHT22;3161;48.794;9.784;2023-05-16T10:02:19;14.00;99.90
6256;DHT22;3161;48.794;9.784;2023-05-16T10:04:47;13.90;99.90
6256;DHT22;3161;48.794;9.784;2023-05-16T10:07:15;14.00;99.90
6256;DHT22;3161;48.794;9.784;2023-05-16T10:09:43;14.10;99.90
6256;DHT22;3161;48.794;9.784;2023-05-16T10:12:12;14.10;99.90
6256;DHT22;3161;48.794;9.784;2023-05-16T10:14:41;14.10;99.90
6256;DHT22;3161;48.794;9.784;2023-05-16T10:17:13;14.10;99.90
6256;DHT22;3161;48.794;9.784;2023-05-16T10:19:42;14.20;99.90
6256;DHT22;3161;48.794;9.784;2023-05-16T10:22:11;14.20;99.90
6256;DHT22;3161;48.794;9.784;2023-05-16T10:27:31;14.20;99.90
6256;DHT22;3161;48.794;9.784;2023-05-16T10:30:01;14.10;99.90
6256;DHT22;3161;48.794;9.784;2023-05-16T10:32:29;14.10;99.90
6256;DHT22;3161;48.794;9.784;2023-05-16T10:37:47;14.10;99.90
6256;DHT22;3161;48.794;9.784;2023-05-16T10:40:16;14.10;99.90
6256;DHT22;3161;48.794;9.784;2023-05-16T10:42:59;14.10;99.90
6256;DHT22;3161;48.794;9.784;2023-05-16T10:45:27;14.10;99.90
6256;DHT22;3161;48.794;9.784;2023-05-16T10:48:04;14.10;99.90
6256;DHT22;3161;48.794;9.784;2023-05-16T10:50:39;14.10;99.90
6256;DHT22;3161;48.794;9.784;2023-05-16T10:53:19;14.10;99.90
6256;DHT22;3161;48.794;9.784;2023-05-16T11:01:20;14.20;99.90
6256;DHT22;3161;48.794;9.784;2023-05-16T11:09:17;14.20;99.90
6256;DHT22;3161;48.794;9.784;2023-05-16T11:12:02;14.20;99.90
6256;DHT22;3161;48.794;9.784;2023-05-16T11:14:34;14.20;99.90
6256;DHT22;3161;48.794;9.784;2023-05-16T11:17:11;14.20;99.90
6256;DHT22;3161;48.794;9.784;2023-05-16T11:19:47;14.20;99.90
6256;DHT22;3161;48.794;9.784;2023-05-16T11:22:23;14.30;99.90
6256;DHT22;3161;48.794;9.784;2023-05-16T11:24:56;14.30;99.90
6256;DHT22;3161;48.794;9.784;2023-05-16T11:27:26;14.40;99.90
6256;DHT22;3161;48.794;9.784;2023-05-16T11:30:00;14.50;99.90
6256;DHT22;3161;48.794;9.784;2023-05-16T11:32:27;14.70;99.90
6256;DHT22;3161;48.794;9.784;2023-05-16T11:34:55;14.80;99.90
6256;DHT22;3161;48.794;9.784;2023-05-16T11:37:24;14.90;99.90
6256;DHT22;3161;48.794;9.784;2023-05-16T11:39:52;15.10;99.90
6256;DHT22;3161;48.794;9.784;2023-05-16T11:42:19;15.20;99.90
6256;DHT22;3161;48.794;9.784;2023-05-16T11:44:47;15.20;99.90
6256;DHT22;3161;48.794;9.784;2023-05-16T11:47:15;15.20;99.90
6256;DHT22;3161;48.794;9.784;2023-05-16T11:49:42;15.20;99.90
6256;DHT22;3161;48.794;9.784;2023-05-16T11:52:10;15.20;99.90
6256;DHT22;3161;48.794;9.784;2023-05-16T11:54:37;15.20;99.90
6256;DHT22;3161;48.794;9.784;2023-05-16T11:57:08;15.30;99.90
6256;DHT22;3161;48.794;9.784;2023-05-16T11:59:36;15.20;99.90
6256;DHT22;3161;48.794;9.784;2023-05-16T12:02:04;15.20;99.90
6256;DHT22;3161;48.794;9.784;2023-05-16T12:04:32;15.20;99.90
6256;DHT22;3161;48.794;9.784;2023-05-16T12:07:00;15.30;99.90
6256;DHT22;3161;48.794;9.784;2023-05-16T12:12:19;15.30;99.90
6256;DHT22;3161;48.794;9.784;2023-05-16T12:14:48;15.40;99.90
6256;DHT22;3161;48.794;9.784;2023-05-16T12:17:16;15.30;99.90
6256;DHT22;3161;48.794;9.784;2023-05-16T12:19:44;15.30;99.90
6256;DHT22;3161;48.794;9.784;2023-05-16T12:22:18;15.30;99.90
6256;DHT22;3161;48.794;9.784;2023-05-16T12:24:47;15.30;99.90
6256;DHT22;3161;48.794;9.784;2023-05-16T12:27:23;15.30;99.90
6256;DHT22;3161;48.794;9.784;2023-05-16T12:29:50;15.30;99.90
6256;DHT22;3161;48.794;9.784;2023-05-16T12:32:19;15.30;99.90
6256;DHT22;3161;48.794;9.784;2023-05-16T12:34:50;15.30;99.90
6256;DHT22;3161;48.794;9.784;2023-05-16T12:37:20;15.30;99.90
6256;DHT22;3161;48.794;9.784;2023-05-16T12:39:47;15.20;99.90
6256;DHT22;3161;48.794;9.784;2023-05-16T12:42:15;15.10;99.90
6256;DHT22;3161;48.794;9.784;2023-05-16T12:44:44;15.10;99.90
6256;DHT22;3161;48.794;9.784;2023-05-16T12:47:12;15.10;99.90
6256;DHT22;3161;48.794;9.784;2023-05-16T12:49:47;15.10;99.90
6256;DHT22;3161;48.794;9.784;2023-05-16T12:52:17;15.10;99.90
6256;DHT22;3161;48.794;9.784;2023-05-16T12:54:47;15.10;99.90
6256;DHT22;3161;48.794;9.784;2023-05-16T12:57:14;15.10;99.90
6256;DHT22;3161;48.794;9.784;2023-05-16T12:59:42;15.10;99.90
6256;DHT22;3161;48.794;9.784;2023-05-16T13:02:09;15.10;99.90
6256;DHT22;3161;48.794;9.784;2023-05-16T13:04:37;15.10;99.90
6256;DHT22;3161;48.794;9.784;2023-05-16T13:07:05;15.20;99.90
6256;DHT22;3161;48.794;9.784;2023-05-16T13:09:32;15.20;99.90
6256;DHT22;3161;48.794;9.784;2023-05-16T13:12:00;15.30;99.90
6256;DHT22;3161;48.794;9.784;2023-05-16T13:14:27;15.40;99.90
6256;DHT22;3161;48.794;9.784;2023-05-16T13:16:55;15.40;99.90
6256;DHT22;3161;48.794;9.784;2023-05-16T13:19:22;15.50;99.90
6256;DHT22;3161;48.794;9.784;2023-05-16T13:21:50;15.50;99.90
6256;DHT22;3161;48.794;9.784;2023-05-16T13:24:17;15.60;99.90
6256;DHT22;3161;48.794;9.784;2023-05-16T13:26:45;15.60;99.90
6256;DHT22;3161;48.794;9.784;2023-05-16T13:29:12;15.60;99.90
6256;DHT22;3161;48.794;9.784;2023-05-16T13:31:40;15.60;99.90
6256;DHT22;3161;48.794;9.784;2023-05-16T13:34:07;15.70;99.90
6256;DHT22;3161;48.794;9.784;2023-05-16T13:36:35;15.70;99.90
6256;DHT22;3161;48.794;9.784;2023-05-16T13:39:02;15.70;99.90
6256;DHT22;3161;48.794;9.784;2023-05-16T13:41:30;15.80;99.90
6256;DHT22;3161;48.794;9.784;2023-05-16T13:43:59;15.80;99.90
6256;DHT22;3161;48.794;9.784;2023-05-16T13:46:26;15.90;99.90
6256;DHT22;3161;48.794;9.784;2023-05-16T13:48:54;15.90;99.90
6256;DHT22;3161;48.794;9.784;2023-05-16T13:51:21;15.90;99.90
6256;DHT22;3161;48.794;9.784;2023-05-16T13:53:49;15.80;99.90
6256;DHT22;3161;48.794;9.784;2023-05-16T13:56:16;15.70;99.90
6256;DHT22;3161;48.794;9.784;2023-05-16T13:58:44;15.60;99.90
6256;DHT22;3161;48.794;9.784;2023-05-16T14:01:11;15.50;99.90
6256;DHT22;3161;48.794;9.784;2023-05-16T14:03:41;15.30;99.90
6256;DHT22;3161;48.794;9.784;2023-05-16T14:06:09;15.10;99.90
6256;DHT22;3161;48.794;9.784;2023-05-16T14:08:44;15.00;99.90
6256;DHT22;3161;48.794;9.784;2023-05-16T14:11:11;15.00;99.90
6256;DHT22;3161;48.794;9.784;2023-05-16T14:13:39;14.90;99.90
6256;DHT22;3161;48.794;9.784;2023-05-16T14:16:06;14.90;99.90
6256;DHT22;3161;48.794;9.784;2023-05-16T14:18:34;14.80;99.90
6256;DHT22;3161;48.794;9.784;2023-05-16T14:21:01;14.70;99.90
6256;DHT22;3161;48.794;9.784;2023-05-16T14:23:29;14.60;99.90
6256;DHT22;3161;48.794;9.784;2023-05-16T14:25:56;14.50;99.90
6256;DHT22;3161;48.794;9.784;2023-05-16T14:28:24;14.50;99.90
6256;DHT22;3161;48.794;9.784;2023-05-16T14:30:52;14.50;99.90
6256;DHT22;3161;48.794;9.784;2023-05-16T14:33:20;14.50;99.90
6256;DHT22;3161;48.794;9.784;2023-05-16T14:35:47;14.50;99.90
6256;DHT22;3161;48.794;9.784;2023-05-16T14:38:15;14.50;99.90
6256;DHT22;3161;48.794;9.784;2023-05-16T14:40:43;14.50;99.90
6256;DHT22;3161;48.794;9.784;2023-05-16T14:43:11;14.40;99.90
6256;DHT22;3161;48.794;9.784;2023-05-16T14:45:38;14.50;99.90
6256;DHT22;3161;48.794;9.784;2023-05-16T14:48:07;14.50;99.90
6256;DHT22;3161;48.794;9.784;2023-05-16T14:50:34;14.50;99.90
6256;DHT22;3161;48.794;9.784;2023-05-16T14:53:02;14.50;99.90
6256;DHT22;3161;48.794;9.784;2023-05-16T14:55:29;14.60;99.90
6256;DHT22;3161;48.794;9.784;2023-05-16T14:57:57;14.60;99.90
6256;DHT22;3161;48.794;9.784;2023-05-16T15:00:25;14.60;99.90
6256;DHT22;3161;48.794;9.784;2023-05-16T15:02:52;14.60;99.90
6256;DHT22;3161;48.794;9.784;2023-05-16T15:05:20;14.60;99.90
6256;DHT22;3161;48.794;9.784;2023-05-16T15:07:48;14.60;99.90
6256;DHT22;3161;48.794;9.784;2023-05-16T15:10:16;14.70;99.90
6256;DHT22;3161;48.794;9.784;2023-05-16T15:12:43;14.60;99.90
6256;DHT22;3161;48.794;9.784;2023-05-16T15:15:11;14.70;99.90
6256;DHT22;3161;48.794;9.784;2023-05-16T15:17:40;14.80;99.90
6256;DHT22;3161;48.794;9.784;2023-05-16T15:20:09;14.80;99.90
6256;DHT22;3161;48.794;9.784;2023-05-16T15:22:38;14.90;99.90
6256;DHT22;3161;48.794;9.784;2023-05-16T15:25:07;14.90;99.90
6256;DHT22;3161;48.794;9.784;2023-05-16T15:27:35;15.00;99.90
6256;DHT22;3161;48.794;9.784;2023-05-16T15:30:03;14.90;99.90
6256;DHT22;3161;48.794;9.784;2023-05-16T15:32:31;14.90;99.90
6256;DHT22;3161;48.794;9.784;2023-05-16T15:34:59;14.70;99.90
6256;DHT22;3161;48.794;9.784;2023-05-16T15:37:27;14.70;99.90
6256;DHT22;3161;48.794;9.784;2023-05-16T15:39:54;14.70;99.90
6256;DHT22;3161;48.794;9.784;2023-05-16T15:42:22;14.70;99.90
6256;DHT22;3161;48.794;9.784;2023-05-16T15:44:49;14.70;99.90
6256;DHT22;3161;48.794;9.784;2023-05-16T15:47:17;14.60;99.90
6256;DHT22;3161;48.794;9.784;2023-05-16T15:49:45;14.50;99.90
6256;DHT22;3161;48.794;9.784;2023-05-16T15:52:12;14.50;99.90
6256;DHT22;3161;48.794;9.784;2023-05-16T15:54:40;14.50;99.90
6256;DHT22;3161;48.794;9.784;2023-05-16T15:57:07;14.50;99.90
6256;DHT22;3161;48.794;9.784;2023-05-16T15:59:35;14.40;99.90
6256;DHT22;3161;48.794;9.784;2023-05-16T16:02:02;14.30;99.90
6256;DHT22;3161;48.794;9.784;2023-05-16T16:04:31;14.30;99.90
6256;DHT22;3161;48.794;9.784;2023-05-16T16:06:59;14.30;99.90
6256;DHT22;3161;48.794;9.784;2023-05-16T16:09:26;14.30;99.90
6256;DHT22;3161;48.794;9.784;2023-05-16T16:11:54;14.30;99.90
6256;DHT22;3161;48.794;9.784;2023-05-16T16:14:23;14.30;99.90
6256;DHT22;3161;48.794;9.784;2023-05-16T16:16:50;14.20;99.90
6256;DHT22;3161;48.794;9.784;2023-05-16T16:19:18;14.20;99.90
6256;DHT22;3161;48.794;9.784;2023-05-16T16:21:46;14.20;99.90
6256;DHT22;3161;48.794;9.784;2023-05-16T16:24:13;14.30;99.90
6256;DHT22;3161;48.794;9.784;2023-05-16T16:26:41;14.20;99.90
6256;DHT22;3161;48.794;9.784;2023-05-16T16:29:09;14.20;99.90
6256;DHT22;3161;48.794;9.784;2023-05-16T16:31:36;14.20;99.90
6256;DHT22;3161;48.794;9.784;2023-05-16T16:34:04;14.20;99.90
6256;DHT22;3161;48.794;9.784;2023-05-16T16:36:32;14.20;99.90
6256;DHT22;3161;48.794;9.784;2023-05-16T16:38:59;14.20;99.90
6256;DHT22;3161;48.794;9.784;2023-05-16T16:41:26;14.20;99.90
6256;DHT22;3161;48.794;9.784;2023-05-16T16:43:54;14.10;99.90